Time;durP1;ratioP1;P1;durP2;ratioP2;P2;SDS_P1;SDS_P2;PMS_P1;PMS_P2;Temp;Humidity;BMP_temperature;BMP_pressure;BME280_temperature;BME280_humidity;BME280_pressure;Samples;Min_cycle;Max_cycle;Signal;HPM_P1;HPM_P2
2022/10/13 00:01:48;;;;;;;14.90;3.03;;;;;;;22.59;100.00;98425.75;6209779;23;20701;-90
2022/10/13 00:04:13;;;;;;;10.23;2.80;;;;;;;23.61;100.00;98421.81;6210065;23;20346;-90
2022/10/13 00:06:38;;;;;;;12.38;2.67;;;;;;;23.56;100.00;98421.25;6236455;23;20402;-89
2022/10/13 00:09:04;;;;;;;12.88;3.00;;;;;;;23.46;100.00;98427.19;6210610;23;20406;-90
2022/10/13 00:11:29;;;;;;;9.85;2.95;;;;;;;23.44;100.00;98425.63;6237313;23;20430;-89
2022/10/13 00:14:01;;;;;;;10.57;2.60;;;;;;;23.39;100.00;98435.69;6210166;23;20004;-89
2022/10/13 00:16:27;;;;;;;14.90;3.33;;;;;;;22.67;100.00;98426.13;6238466;23;20442;-90
2022/10/13 00:18:53;;;;;;;12.98;2.88;;;;;;;22.97;100.00;98425.09;6237671;23;20008;-90
2022/10/13 00:21:22;;;;;;;8.82;3.05;;;;;;;22.65;100.00;98425.38;6212720;23;20012;-90
2022/10/13 00:23:49;;;;;;;14.18;3.00;;;;;;;23.52;100.00;98425.91;6239377;23;20304;-90
2022/10/13 00:26:16;;;;;;;11.30;2.78;;;;;;;22.63;100.00;98416.63;6211107;23;20011;-90
2022/10/13 00:28:42;;;;;;;13.98;3.00;;;;;;;22.87;100.00;98418.66;6211814;23;20008;-89
2022/10/13 00:31:25;;;;;;;14.85;3.30;;;;;;;22.99;100.00;98415.22;6211637;23;20016;-90
2022/10/13 00:33:54;;;;;;;14.48;3.50;;;;;;;24.15;100.00;98426.94;6212230;23;20764;-90
2022/10/13 00:36:21;;;;;;;11.57;3.03;;;;;;;23.97;100.00;98420.25;6212638;23;20016;-90
2022/10/13 00:38:47;;;;;;;12.43;3.05;;;;;;;23.67;100.00;98419.56;6239444;23;20072;-89
2022/10/13 00:41:16;;;;;;;13.88;3.10;;;;;;;23.18;100.00;98417.53;6238358;23;20008;-89
2022/10/13 00:43:57;;;;;;;12.43;3.25;;;;;;;22.42;100.00;98417.09;6212635;23;20086;-90
2022/10/13 00:46:25;;;;;;;10.60;2.95;;;;;;;22.76;100.00;98424.69;6238040;23;20043;-91
2022/10/13 00:48:51;;;;;;;11.77;2.80;;;;;;;23.73;100.00;98420.97;6212029;23;20055;-89
2022/10/13 00:51:21;;;;;;;12.20;2.97;;;;;;;23.02;100.00;98418.53;6212091;23;20008;-90
2022/10/13 00:53:47;;;;;;;11.98;2.97;;;;;;;24.83;96.71;98419.47;6211355;23;20563;-90
2022/10/13 00:56:16;;;;;;;11.43;3.47;;;;;;;24.08;96.69;98423.03;6210288;23;20004;-90
2022/10/13 00:58:43;;;;;;;12.15;2.67;;;;;;;23.14;100.00;98427.53;6212070;23;20044;-91
2022/10/13 01:01:09;;;;;;;10.13;2.95;;;;;;;22.76;100.00;98422.88;6237020;23;20809;-90
2022/10/13 01:03:35;;;;;;;11.48;2.80;;;;;;;22.41;100.00;98426.00;6212235;23;20091;-90
2022/10/13 01:06:02;;;;;;;10.65;2.42;;;;;;;22.35;100.00;98418.38;6211791;23;20010;-90
2022/10/13 01:08:28;;;;;;;11.82;2.40;;;;;;;22.87;100.00;98410.69;6210746;23;20432;-90
2022/10/13 01:11:39;;;;;;;16.50;2.45;;;;;;;22.74;100.00;98416.84;6210549;23;20020;-90
2022/10/13 01:14:13;;;;;;;10.48;2.17;;;;;;;22.46;100.00;98418.59;6211171;23;20453;-90
2022/10/13 01:17:04;;;;;;;10.02;2.10;;;;;;;22.93;99.54;98419.13;6212097;23;20042;-90
2022/10/13 01:19:51;;;;;;;9.73;2.00;;;;;;;22.13;100.00;98425.03;6211551;23;20007;-91
2022/10/13 01:22:26;;;;;;;11.27;2.22;;;;;;;22.83;97.28;98412.72;6237148;23;20004;-90
2022/10/13 01:25:06;;;;;;;9.20;2.00;;;;;;;21.80;100.00;98414.69;6238114;23;20195;-90
2022/10/13 01:27:49;;;;;;;11.30;2.42;;;;;;;22.93;100.00;98413.81;6237202;23;20466;-90
2022/10/13 01:30:17;;;;;;;8.27;1.90;;;;;;;23.18;99.89;98407.75;6211982;23;20004;-91
2022/10/13 01:32:55;;;;;;;11.93;2.38;;;;;;;22.79;100.00;98411.22;6209422;23;20251;-90
2022/10/13 01:35:55;;;;;;;9.57;2.35;;;;;;;23.10;98.51;98415.34;6236464;23;20004;-90
2022/10/13 01:38:34;;;;;;;8.88;2.30;;;;;;;21.88;100.00;98414.19;6210722;23;20216;-89
2022/10/13 01:41:26;;;;;;;13.43;2.42;;;;;;;22.11;100.00;98416.28;6209887;23;20059;-90
2022/10/13 01:44:00;;;;;;;10.95;1.90;;;;;;;23.28;96.79;98417.78;6211860;23;20097;-91
2022/10/13 01:46:37;;;;;;;11.77;2.03;;;;;;;21.81;99.64;98409.28;6210524;23;20513;-90
2022/10/13 01:49:08;;;;;;;8.43;1.88;;;;;;;23.04;94.20;98418.44;6209673;23;20027;-90
2022/10/13 01:51:34;;;;;;;8.70;1.80;;;;;;;23.39;94.64;98407.28;6239406;23;20003;-90
2022/10/13 01:54:00;;;;;;;7.60;2.00;;;;;;;24.58;90.83;98411.50;6237311;23;20079;-90
2022/10/13 01:56:25;;;;;;;7.38;1.70;;;;;;;23.02;94.56;98415.03;6211434;23;20015;-90
2022/10/13 01:58:53;;;;;;;7.80;1.85;;;;;;;24.49;91.67;98415.69;6208120;23;20417;-89
2022/10/13 02:01:41;;;;;;;9.05;2.03;;;;;;;24.13;88.02;98410.19;6243127;22;20089;-95
2022/10/13 02:04:31;;;;;;;9.07;1.77;;;;;;;23.21;92.82;98401.38;6245698;22;20012;-95
2022/10/13 02:07:08;;;;;;;9.48;2.00;;;;;;;23.73;89.86;98412.97;6249438;22;20003;-95
2022/10/13 02:10:01;;;;;;;8.52;1.80;;;;;;;23.88;89.13;98410.22;6250143;22;20010;-95
2022/10/13 02:13:03;;;;;;;8.82;1.75;;;;;;;22.86;92.15;98412.50;6250163;22;20030;-94
2022/10/13 02:15:40;;;;;;;10.50;1.80;;;;;;;23.42;92.39;98408.88;6239501;22;20460;-95
2022/10/13 02:18:22;;;;;;;9.93;1.83;;;;;;;23.86;91.09;98412.97;6248336;22;20102;-95
2022/10/13 02:20:49;;;;;;;10.05;1.85;;;;;;;23.22;88.85;98405.75;6249674;22;20105;-95
2022/10/13 02:23:19;;;;;;;9.05;1.77;;;;;;;22.08;94.31;98399.72;6248429;22;20031;-95
2022/10/13 02:25:47;;;;;;;9.93;1.88;;;;;;;22.39;90.98;98398.66;6249074;22;20070;-95
2022/10/13 02:28:21;;;;;;;9.55;1.35;;;;;;;23.09;90.22;98392.38;6249169;22;20027;-95
2022/10/13 02:30:50;;;;;;;12.50;1.48;;;;;;;21.99;92.55;98393.19;6249216;22;20082;-96
2022/10/13 02:33:22;;;;;;;10.10;1.60;;;;;;;21.95;92.65;98394.31;6249815;22;20425;-94
2022/10/13 02:35:47;;;;;;;9.18;1.70;;;;;;;21.72;94.58;98393.91;6249419;22;20008;-94
2022/10/13 02:38:17;;;;;;;10.00;1.75;;;;;;;21.96;93.36;98399.53;6275847;22;20733;-95
2022/10/13 02:40:53;;;;;;;5.82;1.27;;;;;;;22.89;88.98;98395.50;6249022;22;20303;-96
2022/10/13 02:43:19;;;;;;;8.38;1.40;;;;;;;23.01;93.30;98390.22;6249482;22;20090;-95
2022/10/13 02:45:48;;;;;;;7.30;1.58;;;;;;;22.05;93.92;98394.59;6249203;22;20031;-95
2022/10/13 02:48:13;;;;;;;9.23;1.50;;;;;;;21.84;96.56;98394.97;6250527;22;20023;-95
2022/10/13 02:50:39;;;;;;;8.05;1.55;;;;;;;21.26;99.15;98402.75;6249588;22;20337;-96
2022/10/13 02:53:13;;;;;;;6.47;1.50;;;;;;;22.23;96.55;98382.81;6250102;22;20805;-96
2022/10/13 02:55:47;;;;;;;10.77;1.50;;;;;;;21.40;98.53;98379.88;6249723;22;20015;-94
2022/10/13 02:58:23;;;;;;;5.45;1.33;;;;;;;23.37;93.35;98387.03;6249826;22;19999;-95
2022/10/13 03:00:49;;;;;;;9.30;1.70;;;;;;;22.74;97.70;98398.22;6249153;22;20003;-95
2022/10/13 03:03:17;;;;;;;8.75;1.65;;;;;;;23.17;95.32;98395.44;6243303;23;20074;-96
2022/10/13 03:05:49;;;;;;;8.88;1.63;;;;;;;24.01;88.60;98398.63;6243837;23;20012;-95
2022/10/13 03:08:21;;;;;;;6.00;1.40;;;;;;;23.93;84.99;98390.31;6244685;23;20027;-95
2022/10/13 03:10:46;;;;;;;6.60;1.55;;;;;;;23.89;85.67;98398.63;6244403;23;20012;-94
2022/10/13 03:13:35;;;;;;;13.20;1.52;;;;;;;23.21;89.33;98400.53;6244858;23;20063;-95
2022/10/13 03:16:01;;;;;;;5.20;1.20;;;;;;;23.28;88.94;98407.16;6244863;23;20004;-95
2022/10/13 03:18:39;;;;;;;7.55;1.60;;;;;;;23.20;86.73;98394.38;6244498;23;20287;-95
2022/10/13 03:21:08;;;;;;;8.32;1.50;;;;;;;23.21;87.44;98408.50;6244695;23;20095;-96
2022/10/13 03:23:34;;;;;;;8.70;1.58;;;;;;;23.07;86.31;98391.63;6244409;23;20065;-96
2022/10/13 03:26:03;;;;;;;7.40;1.45;;;;;;;23.18;89.20;98377.66;6244029;23;20028;-94
2022/10/13 03:28:31;;;;;;;8.40;1.40;;;;;;;23.00;94.57;98379.69;6244637;23;20102;-95
2022/10/13 03:31:05;;;;;;;7.93;1.52;;;;;;;22.76;90.89;98382.16;6244118;23;20011;-95
2022/10/13 03:33:39;;;;;;;10.50;1.58;;;;;;;23.56;91.39;98376.84;6243057;23;20004;-95
2022/10/13 03:36:06;;;;;;;7.70;1.40;;;;;;;22.60;95.28;98377.84;6244203;23;19996;-95
2022/10/13 03:38:37;;;;;;;6.97;1.30;;;;;;;22.39;96.04;98369.44;6243827;23;20012;-95
2022/10/13 03:41:09;;;;;;;10.02;1.70;;;;;;;22.53;94.05;98373.00;6244005;23;20000;-95
2022/10/13 03:43:37;;;;;;;9.48;1.40;;;;;;;22.46;90.03;98370.75;6244776;23;20012;-96
2022/10/13 03:46:10;;;;;;;11.55;1.38;;;;;;;22.87;92.92;98357.50;6245379;23;20012;-95
2022/10/13 03:48:42;;;;;;;7.30;1.38;;;;;;;23.37;85.40;98374.59;6246123;23;20000;-96
2022/10/13 03:51:17;;;;;;;6.45;1.25;;;;;;;22.96;84.82;98368.38;6248945;23;20017;-96
2022/10/13 03:53:43;;;;;;;7.60;1.60;;;;;;;23.91;86.37;98364.75;6246183;23;20334;-96
2022/10/13 03:56:19;;;;;;;6.20;1.40;;;;;;;24.22;85.02;98370.53;6249687;23;20012;-95
2022/10/13 03:58:46;;;;;;;8.13;1.13;;;;;;;20.84;88.31;98384.91;6251311;23;20012;-96
2022/10/13 04:01:15;;;;;;;9.25;1.63;;;;;;;21.22;97.92;98374.72;6254245;22;20019;-96
2022/10/13 04:03:43;;;;;;;7.45;1.27;;;;;;;21.07;95.18;98381.78;6253625;22;20022;-96
2022/10/13 04:06:09;;;;;;;11.27;1.58;;;;;;;20.27;93.74;98395.03;6254029;22;20004;-96
2022/10/13 04:08:37;;;;;;;7.32;1.58;;;;;;;20.70;94.72;98375.94;6254463;22;20007;-96
2022/10/13 04:11:12;;;;;;;9.20;1.58;;;;;;;22.44;90.84;98387.75;6255006;22;20003;-95
2022/10/13 04:13:46;;;;;;;8.85;1.33;;;;;;;23.49;82.60;98375.56;6253746;22;20003;-96
2022/10/13 04:16:22;;;;;;;6.57;1.23;;;;;;;20.94;89.97;98375.47;6254337;22;20087;-95
2022/10/13 04:18:56;;;;;;;14.15;1.65;;;;;;;20.35;96.10;98386.69;6254908;22;20014;-96
2022/10/13 04:21:23;;;;;;;8.48;1.40;;;;;;;21.03;90.69;98376.75;6253918;22;20003;-95
2022/10/13 04:23:49;;;;;;;9.18;1.35;;;;;;;23.98;82.38;98363.34;6252855;22;20030;-96
2022/10/13 04:26:22;;;;;;;9.52;1.40;;;;;;;22.39;83.41;98358.81;6254789;22;20000;-95
2022/10/13 04:29:13;;;;;;;9.27;1.27;;;;;;;20.77;89.45;98377.28;6257401;22;19999;-96
2022/10/13 04:31:45;;;;;;;10.70;1.85;;;;;;;19.74;92.71;98383.72;6257742;22;20003;-95
2022/10/13 04:34:45;;;;;;;6.20;1.20;;;;;;;20.20;95.86;98369.00;6287478;22;20059;-95
2022/10/13 04:37:42;;;;;;;8.38;1.25;;;;;;;21.18;95.09;98367.03;6258630;22;20012;-95
2022/10/13 04:40:23;;;;;;;7.43;1.63;;;;;;;21.69;95.00;98372.84;6224984;22;20034;-95
2022/10/13 04:42:50;;;;;;;8.50;1.40;;;;;;;21.93;93.81;98364.34;6258639;22;20091;-95
2022/10/13 04:45:25;;;;;;;9.98;1.63;;;;;;;21.57;95.40;98360.31;6259118;22;20004;-95
2022/10/13 04:47:54;;;;;;;5.95;1.23;;;;;;;20.28;95.85;98380.03;6260367;22;20071;-95
2022/10/13 04:50:27;;;;;;;6.95;1.33;;;;;;;20.32;97.68;98378.91;6260240;22;20038;-96
2022/10/13 04:53:00;;;;;;;7.05;1.10;;;;;;;21.57;94.48;98371.81;6282507;22;20067;-96
2022/10/13 04:55:52;;;;;;;6.45;1.20;;;;;;;21.66;91.63;98341.19;6259968;22;20000;-95
2022/10/13 04:58:26;;;;;;;7.25;1.23;;;;;;;21.64;89.72;98356.34;6259375;22;20038;-95
2022/10/13 05:01:00;;;;;;;7.05;1.30;;;;;;;21.46;91.70;98360.94;6259212;22;20011;-95
2022/10/13 05:03:36;;;;;;;;;;;;;;;21.83;89.38;98366.69;6256586;22;20441;-95
2022/10/13 05:06:31;;;;;;;7.22;1.20;;;;;;;21.42;90.54;98354.09;6254300;22;19992;-95
2022/10/13 05:09:31;;;;;;;;;;;;;;;;;;;;;
2022/10/13 05:12:16;;;;;;;7.53;1.38;;;;;;;21.99;85.15;98340.91;6279253;22;20509;-95
2022/10/13 05:14:45;;;;;;;8.55;1.70;;;;;;;22.32;80.85;98331.75;6257484;22;20030;-96
2022/10/13 05:17:18;;;;;;;8.52;1.55;;;;;;;23.16;82.04;98358.28;6260128;22;20049;-94
2022/10/13 05:19:48;;;;;;;8.07;1.60;;;;;;;22.38;85.58;98348.28;6258659;22;20056;-96
2022/10/13 05:22:28;;;;;;;10.15;1.50;;;;;;;22.43;87.95;98360.31;6258517;22;20015;-95
2022/10/13 05:25:23;;;;;;;6.05;1.15;;;;;;;22.06;92.33;98352.00;6258825;22;20000;-95
2022/10/13 05:27:50;;;;;;;8.73;1.38;;;;;;;21.88;91.96;98361.97;6237392;22;20050;-95
2022/10/13 05:30:50;;;;;;;;;;;;;;;;;;;;;
2022/10/13 05:33:26;;;;;;;10.10;1.45;;;;;;;20.88;86.65;98350.19;6236280;22;19998;-95
2022/10/13 05:35:51;;;;;;;6.90;1.40;;;;;;;21.62;89.29;98356.44;6258844;22;20004;-96
2022/10/13 05:38:23;;;;;;;13.10;1.85;;;;;;;21.47;87.10;98357.34;6252256;22;20061;-96
2022/10/13 05:40:48;;;;;;;6.95;1.20;;;;;;;22.31;85.94;98366.38;6252403;22;20000;-95
2022/10/13 05:43:14;;;;;;;6.72;1.30;;;;;;;22.30;87.04;98367.34;6251642;22;20010;-96
2022/10/13 05:45:39;;;;;;;6.85;2.03;;;;;;;21.81;85.67;98369.47;6250691;22;20358;-95
2022/10/13 05:48:05;;;;;;;8.13;1.50;;;;;;;20.99;88.87;98362.81;6252123;22;20442;-95
2022/10/13 05:50:31;;;;;;;6.18;1.10;;;;;;;20.75;92.54;98368.59;6251376;22;20016;-95
2022/10/13 05:52:59;;;;;;;10.93;1.50;;;;;;;19.84;85.20;98372.69;6253495;22;19999;-95
2022/10/13 05:55:25;;;;;;;12.80;1.63;;;;;;;20.46;83.37;98376.34;6257026;22;20015;-95
2022/10/13 05:57:54;;;;;;;12.25;1.42;;;;;;;19.85;86.11;98371.75;6258871;22;20489;-96
2022/10/13 06:00:28;;;;;;;6.18;1.13;;;;;;;20.36;82.27;98369.00;6258500;22;20015;-95
2022/10/13 06:03:15;;;;;;;12.75;1.13;;;;;;;20.89;83.92;98369.59;6254539;23;20020;-96
2022/10/13 06:05:44;;;;;;;5.93;1.20;;;;;;;20.41;88.08;98365.16;6250829;23;20012;-95
2022/10/13 06:08:09;;;;;;;8.40;1.25;;;;;;;20.91;86.09;98357.94;6249405;23;20046;-95
2022/10/13 06:10:41;;;;;;;6.53;1.40;;;;;;;19.71;95.46;98364.53;6248596;23;20004;-94
2022/10/13 06:13:10;;;;;;;8.27;1.60;;;;;;;19.98;96.04;98379.88;6247605;23;20008;-95
2022/10/13 06:15:35;;;;;;;6.65;1.30;;;;;;;19.69;96.61;98382.25;6248491;23;20000;-95
2022/10/13 06:18:01;;;;;;;7.72;1.35;;;;;;;20.18;93.05;98376.16;6248071;23;20091;-95
2022/10/13 06:20:26;;;;;;;8.13;1.42;;;;;;;20.08;91.57;98387.25;6249642;22;20494;-95
2022/10/13 06:22:56;;;;;;;7.93;1.35;;;;;;;19.19;97.46;98384.78;6248208;23;20354;-95
2022/10/13 06:25:23;;;;;;;9.23;1.60;;;;;;;19.47;95.86;98385.16;6250075;22;20003;-95
2022/10/13 06:27:52;;;;;;;7.93;1.42;;;;;;;18.98;99.90;98383.19;6248471;23;20004;-94
2022/10/13 06:30:18;;;;;;;5.30;1.17;;;;;;;18.93;99.71;98383.44;6251466;23;20004;-95
2022/10/13 06:32:43;;;;;;;10.48;1.25;;;;;;;19.66;98.48;98391.19;6248511;23;20004;-94
2022/10/13 06:35:09;;;;;;;9.52;1.65;;;;;;;19.68;95.60;98375.25;6249087;23;20012;-95
2022/10/13 06:37:38;;;;;;;4.82;1.17;;;;;;;19.24;97.26;98372.16;6247288;23;20043;-94
2022/10/13 06:40:04;;;;;;;8.38;1.67;;;;;;;19.58;96.42;98369.56;6246157;23;20019;-93
2022/10/13 06:42:32;;;;;;;8.55;1.80;;;;;;;19.21;95.14;98352.97;6245689;23;20098;-94
2022/10/13 06:48:00;;;;;;;8.30;1.40;;;;;;;19.39;93.24;98367.06;6252493;22;20028;-93
2022/10/13 06:50:34;;;;;;;6.72;1.10;;;;;;;19.37;93.56;98353.91;6245809;23;20019;-93
2022/10/13 06:53:11;;;;;;;10.05;1.67;;;;;;;20.45;88.70;98348.16;6245079;23;20445;-92
2022/10/13 06:55:42;;;;;;;10.05;1.85;;;;;;;20.02;90.54;98350.50;6246096;23;20000;-93
2022/10/13 06:58:14;;;;;;;7.72;1.50;;;;;;;19.47;91.66;98356.94;6243919;23;20080;-94
2022/10/13 07:00:43;;;;;;;6.38;1.40;;;;;;;20.28;89.99;98342.94;6244682;23;20058;-93
2022/10/13 07:03:09;;;;;;;7.82;1.33;;;;;;;19.88;90.11;98340.69;6243702;23;20062;-93
2022/10/13 07:05:35;;;;;;;8.68;1.42;;;;;;;19.65;89.89;98352.44;6245128;23;20088;-93
2022/10/13 07:08:08;;;;;;;8.00;1.85;;;;;;;19.30;94.61;98346.34;6245935;23;20012;-94
2022/10/13 07:10:36;;;;;;;7.32;1.40;;;;;;;18.12;99.38;98353.78;6246662;22;20039;-93
2022/10/13 07:13:01;;;;;;;10.50;1.48;;;;;;;19.52;91.87;98348.75;6247096;22;20091;-93
2022/10/13 07:15:27;;;;;;;7.93;1.30;;;;;;;19.32;91.38;98350.63;6246853;23;20086;-94
2022/10/13 07:17:55;;;;;;;6.53;1.13;;;;;;;19.20;93.81;98351.25;6247897;23;20004;-93
2022/10/13 07:20:22;;;;;;;7.93;1.20;;;;;;;19.48;92.48;98363.91;6250131;22;20000;-94
2022/10/13 07:22:48;;;;;;;6.97;1.30;;;;;;;20.31;88.10;98355.19;6248007;23;20022;-94
2022/10/13 07:25:14;;;;;;;6.95;1.40;;;;;;;19.95;88.39;98355.28;6249294;23;20020;-94
2022/10/13 07:27:40;;;;;;;9.07;1.50;;;;;;;20.29;87.85;98348.16;6248360;23;20016;-93
2022/10/13 07:30:07;;;;;;;11.02;1.60;;;;;;;19.55;88.67;98351.22;6249197;23;20059;-93
2022/10/13 07:32:34;;;;;;;6.57;1.15;;;;;;;20.16;88.63;98356.88;6250964;22;20000;-93
2022/10/13 07:34:59;;;;;;;7.25;1.33;;;;;;;20.79;86.09;98358.66;6249591;23;20339;-93
2022/10/13 07:37:25;;;;;;;9.00;1.50;;;;;;;20.75;85.10;98365.94;6249851;23;20016;-94
2022/10/13 07:39:51;;;;;;;8.50;1.60;;;;;;;21.71;83.17;98357.72;6248706;23;20012;-94
2022/10/13 07:42:17;;;;;;;10.32;1.50;;;;;;;22.14;80.96;98355.03;6248672;23;20010;-93
2022/10/13 07:44:45;;;;;;;10.85;1.42;;;;;;;21.39;82.18;98351.66;6248923;23;20016;-93
2022/10/13 07:47:11;;;;;;;7.80;1.58;;;;;;;20.89;83.38;98369.59;6248254;23;20012;-94
2022/10/13 07:49:36;;;;;;;9.20;1.52;;;;;;;21.10;83.78;98370.16;6248715;23;20418;-95
2022/10/13 07:52:02;;;;;;;9.38;1.77;;;;;;;20.86;86.31;98364.47;6250202;23;20020;-95
2022/10/13 07:54:30;;;;;;;8.00;1.42;;;;;;;20.64;88.78;98363.88;6250707;23;20020;-95
2022/10/13 07:56:56;;;;;;;6.50;1.25;;;;;;;20.31;90.54;98368.41;6248232;23;19996;-94
2022/10/13 07:59:22;;;;;;;8.65;1.25;;;;;;;20.43;88.66;98362.41;6250433;22;20010;-93
2022/10/13 08:01:47;;;;;;;11.80;1.48;;;;;;;20.91;84.95;98360.59;6249239;23;20028;-94
2022/10/13 08:04:14;;;;;;;7.50;1.40;;;;;;;20.89;85.81;98364.28;6250450;23;20008;-94
2022/10/13 08:06:41;;;;;;;8.20;1.35;;;;;;;20.83;85.96;98354.88;6251137;23;20012;-93
2022/10/13 08:09:06;;;;;;;8.60;1.30;;;;;;;22.31;84.96;98353.97;6248812;23;20008;-92
2022/10/13 08:11:32;;;;;;;6.25;1.38;;;;;;;22.14;86.74;98341.75;6249446;23;20022;-94
2022/10/13 08:14:00;;;;;;;11.07;1.70;;;;;;;22.08;85.83;98350.09;6250256;23;20030;-94
2022/10/13 08:16:27;;;;;;;8.93;1.85;;;;;;;22.62;84.22;98348.50;6250949;23;20019;-93
2022/10/13 08:18:56;;;;;;;12.80;2.05;;;;;;;22.43;84.33;98347.03;6250682;23;20007;-95
2022/10/13 08:21:21;;;;;;;8.98;1.80;;;;;;;23.51;81.73;98358.53;6252294;22;20050;-94
2022/10/13 08:23:48;;;;;;;8.27;1.70;;;;;;;23.59;80.98;98351.81;6250747;23;20004;-94
2022/10/13 08:26:18;;;;;;;12.10;1.75;;;;;;;24.51;73.58;98350.66;6249520;23;20076;-95
2022/10/13 08:28:44;;;;;;;10.50;1.77;;;;;;;24.70;74.45;98357.31;6249611;23;20091;-93
2022/10/13 08:31:09;;;;;;;11.15;1.42;;;;;;;24.67;70.15;98368.22;6248248;23;20024;-94
2022/10/13 08:33:35;;;;;;;11.30;1.67;;;;;;;23.01;80.19;98360.97;6248142;23;20008;-94
2022/10/13 08:36:02;;;;;;;9.70;1.77;;;;;;;23.21;79.46;98360.63;6248879;23;20030;-93
2022/10/13 08:38:28;;;;;;;9.57;1.52;;;;;;;23.35;80.98;98361.41;6251280;23;20012;-94
2022/10/13 08:40:53;;;;;;;8.38;1.67;;;;;;;23.82;73.42;98368.88;6250832;23;20095;-94
2022/10/13 08:43:22;;;;;;;10.27;1.30;;;;;;;23.34;78.57;98362.34;6250000;23;20066;-94
2022/10/13 08:45:49;;;;;;;7.13;1.40;;;;;;;23.75;72.73;98365.78;6252517;22;20016;-93
2022/10/13 08:48:24;;;;;;;8.40;1.70;;;;;;;23.29;74.28;98367.13;6253730;23;20093;-93
2022/10/13 08:50:54;;;;;;;7.72;1.67;;;;;;;23.61;76.23;98371.22;6252037;23;20008;-94
2022/10/13 08:53:33;;;;;;;13.05;1.67;;;;;;;23.32;78.03;98369.56;6251484;23;20004;-94
2022/10/13 08:56:16;;;;;;;10.63;1.52;;;;;;;21.53;80.91;98359.69;6253329;22;20000;-93
2022/10/13 08:58:42;;;;;;;9.13;1.73;;;;;;;23.86;73.71;98371.22;6262570;22;20023;-93
2022/10/13 09:01:08;;;;;;;14.93;1.60;;;;;;;22.35;79.66;98370.56;6263406;22;20019;-94
2022/10/13 09:04:03;;;;;;;9.05;1.60;;;;;;;22.53;81.45;98371.19;6291107;22;20007;-94
2022/10/13 09:06:36;;;;;;;13.07;1.95;;;;;;;22.80;82.78;98367.72;6262396;22;20027;-94
2022/10/13 09:09:14;;;;;;;13.68;1.80;;;;;;;22.79;79.89;98360.69;6261748;22;20023;-94
2022/10/13 09:11:46;;;;;;;10.52;1.80;;;;;;;23.86;72.63;98373.03;6260816;22;20014;-94
2022/10/13 09:14:36;;;;;;;12.30;1.83;;;;;;;22.66;73.11;98381.91;6265907;22;20026;-94
2022/10/13 09:17:14;;;;;;;12.07;1.65;;;;;;;24.13;75.65;98386.22;6270992;22;20003;-92
2022/10/13 09:20:00;;;;;;;12.30;2.00;;;;;;;24.14;72.93;98382.59;6264490;22;20078;-93
2022/10/13 09:22:35;;;;;;;12.50;2.20;;;;;;;25.47;70.86;98394.31;6265519;22;20035;-95
2022/10/13 09:25:24;;;;;;;8.40;1.60;;;;;;;25.05;72.32;98409.88;6264830;22;20103;-93
2022/10/13 09:27:52;;;;;;;9.07;1.70;;;;;;;23.82;76.29;98407.00;6265078;22;20017;-94
2022/10/13 09:31:00;;;;;;;10.73;1.80;;;;;;;24.27;67.73;98413.72;6267744;22;20059;-94
2022/10/13 09:33:25;;;;;;;10.68;1.70;;;;;;;26.66;58.00;98422.44;6267907;22;20026;-94
2022/10/13 09:37:02;;;;;;;8.82;1.48;;;;;;;29.11;54.08;98423.97;6268366;22;19988;-93
2022/10/13 09:40:39;;;;;;;9.90;1.55;;;;;;;27.37;59.94;98413.16;6266547;22;20023;-94
2022/10/13 09:47:03;;;;;;;6.22;1.50;;;;;;;25.39;68.80;98388.69;6296325;22;20095;-93
2022/10/13 09:49:40;;;;;;;6.45;1.35;;;;;;;27.91;55.95;98406.75;6268901;22;20027;-93
2022/10/13 09:52:12;;;;;;;9.77;1.33;;;;;;;26.50;63.72;98395.22;6269373;22;20015;-93
2022/10/13 09:54:46;;;;;;;9.63;1.58;;;;;;;27.12;55.96;98390.25;6268531;22;20012;-94
2022/10/13 09:57:37;;;;;;;7.82;1.70;;;;;;;25.21;63.38;98377.56;6269166;22;19996;-93
2022/10/13 10:00:42;;;;;;;11.00;1.50;;;;;;;24.76;68.26;98390.69;6268013;22;20015;-94
2022/10/13 10:03:33;;;;;;;7.80;1.73;;;;;;;24.24;72.41;98393.47;6265869;23;20039;-93
2022/10/13 10:12:56;;;;;;;10.90;1.58;;;;;;;23.08;72.31;98373.88;6256173;23;20064;-93
2022/10/13 10:15:30;;;;;;;10.35;2.05;;;;;;;23.37;72.49;98366.63;6253764;23;20020;-95
2022/10/13 10:18:20;;;;;;;11.18;2.13;;;;;;;23.49;75.69;98372.91;6256852;23;20008;-93
2022/10/13 10:21:01;;;;;;;8.98;1.85;;;;;;;23.74;71.32;98373.88;6259453;23;20000;-95
2022/10/13 10:24:06;;;;;;;9.38;1.98;;;;;;;23.04;74.78;98372.38;6259065;23;20126;-94
2022/10/13 10:26:53;;;;;;;8.02;1.70;;;;;;;23.21;74.53;98382.75;6255656;23;20016;-94
2022/10/13 10:30:33;;;;;;;10.52;1.60;;;;;;;22.13;76.64;98390.50;6258709;23;20011;-94
2022/10/13 10:33:35;;;;;;;9.02;1.83;;;;;;;23.55;72.57;98374.28;6258467;23;20000;-94
2022/10/13 10:36:18;;;;;;;8.65;1.40;;;;;;;22.98;72.67;98378.94;6258413;23;20008;-94
2022/10/13 10:39:15;;;;;;;6.88;1.40;;;;;;;24.13;70.52;98383.56;6259424;23;20000;-94
2022/10/13 10:53:04;;;;;;;10.82;2.03;;;;;;;22.09;74.27;98382.84;6249296;23;20015;-95
2022/10/13 10:56:06;;;;;;;11.05;1.70;;;;;;;22.94;72.82;98372.97;6247385;23;20012;-94
2022/10/13 10:58:42;;;;;;;9.32;2.08;;;;;;;21.18;77.28;98370.53;6247795;23;20015;-95
2022/10/13 11:01:46;;;;;;;11.88;2.33;;;;;;;22.76;78.73;98372.38;6249737;22;20004;-94
2022/10/13 11:04:41;;;;;;;;;;;;;;;22.06;79.10;98367.94;6222523;23;20008;-94
2022/10/13 11:07:29;;;;;;;9.00;2.03;;;;;;;22.94;77.51;98365.00;6224653;23;19908;-94
2022/10/13 11:09:56;;;;;;;11.23;1.90;;;;;;;21.82;77.59;98371.16;6223016;23;20035;-94
2022/10/13 11:12:21;;;;;;;8.38;1.60;;;;;;;21.95;77.70;98363.28;6222917;23;20008;-94
2022/10/13 11:15:08;;;;;;;8.38;1.88;;;;;;;22.78;78.50;98359.84;6221955;23;20338;-93
2022/10/13 11:17:38;;;;;;;8.45;1.60;;;;;;;24.02;75.56;98355.03;6221330;23;20125;-94
2022/10/13 11:20:19;;;;;;;10.52;2.25;;;;;;;23.77;75.48;98347.91;6221272;23;20015;-93
2022/10/13 11:22:57;;;;;;;10.98;2.00;;;;;;;22.44;77.06;98335.44;6222279;23;20020;-93
2022/10/13 11:25:34;;;;;;;11.68;1.95;;;;;;;22.24;76.30;98335.84;6219757;23;20012;-93
2022/10/13 11:28:20;;;;;;;7.72;1.90;;;;;;;22.57;76.83;98326.69;6217902;23;20014;-93
2022/10/13 11:30:50;;;;;;;9.20;1.60;;;;;;;22.63;73.70;98323.63;6216423;23;20031;-92
2022/10/13 11:33:46;;;;;;;7.72;1.70;;;;;;;21.70;78.81;98328.56;6216543;23;20059;-93
2022/10/13 11:36:53;;;;;;;9.45;1.83;;;;;;;21.91;79.91;98313.16;6217926;23;20086;-94
2022/10/13 11:40:03;;;;;;;8.45;1.65;;;;;;;20.89;81.85;98313.91;6220418;23;20011;-94
2022/10/13 11:42:59;;;;;;;10.43;1.98;;;;;;;22.26;79.20;98310.88;6222499;23;20011;-93
2022/10/13 11:45:51;;;;;;;7.97;1.45;;;;;;;21.67;77.28;98289.84;6218929;23;20050;-94
2022/10/13 11:48:47;;;;;;;9.52;1.73;;;;;;;23.66;72.54;98300.72;6217544;23;20011;-93
2022/10/13 11:51:49;;;;;;;11.13;1.90;;;;;;;22.31;78.14;98311.47;6218288;23;20079;-94
2022/10/13 11:54:18;;;;;;;9.48;1.83;;;;;;;21.44;79.34;98310.63;6216093;23;20074;-94
2022/10/13 11:56:52;;;;;;;10.63;1.60;;;;;;;21.33;79.16;98297.16;6243028;23;20087;-93
2022/10/13 11:59:32;;;;;;;8.80;1.55;;;;;;;21.87;78.46;98301.00;6216890;23;20042;-93
2022/10/13 12:02:10;;;;;;;12.15;1.80;;;;;;;21.86;78.47;98300.13;6220696;22;20030;-93
2022/10/13 12:11:34;;;;;;;9.55;1.60;;;;;;;23.44;73.14;98300.53;6248343;22;20420;-87
2022/10/13 12:14:01;;;;;;;8.85;1.90;;;;;;;23.29;68.36;98305.94;6240158;23;20012;-87
2022/10/13 12:16:28;;;;;;;8.52;1.60;;;;;;;23.97;69.57;98303.91;6213641;23;20621;-87
2022/10/13 12:19:05;;;;;;;10.82;1.67;;;;;;;24.12;69.30;98304.63;6241296;23;20070;-87
2022/10/13 12:21:31;;;;;;;8.15;1.73;;;;;;;24.61;67.87;98304.69;6241286;23;20008;-87
2022/10/13 12:24:06;;;;;;;9.52;1.70;;;;;;;25.63;66.81;98297.81;6213846;23;20026;-87
2022/10/13 12:26:32;;;;;;;8.48;1.80;;;;;;;25.68;64.73;98311.69;6214026;23;20086;-87
2022/10/13 12:29:04;;;;;;;9.65;1.75;;;;;;;24.29;69.88;98297.22;6240970;23;20032;-86
2022/10/13 12:31:44;;;;;;;10.23;1.70;;;;;;;23.48;69.06;98302.88;6214416;23;20114;-87
2022/10/13 12:34:17;;;;;;;9.02;1.80;;;;;;;23.88;70.10;98285.91;6213072;23;20011;-87
2022/10/13 12:36:44;;;;;;;;;;;;;;;25.49;68.53;98290.91;6214006;23;20020;-88
2022/10/13 12:39:14;;;;;;;8.90;1.30;;;;;;;26.39;63.15;98294.53;6213466;23;19903;-86